Time;durP1;ratioP1;P1;durP2;ratioP2;P2;SDS_P1;SDS_P2;PMS_P1;PMS_P2;Temp;Humidity;BMP_temperature;BMP_pressure;BME280_temperature;BME280_humidity;BME280_pressure;Samples;Min_cycle;Max_cycle;Signal;HPM_P1;HPM_P2
2022/01/27 00:05:28;;;;;;;6.43;3.92;;;21.40;41.00;;;;;;5000717;28;44207;-68
2022/01/27 00:08:10;;;;;;;6.07;3.88;;;21.40;41.00;;;;;;4999654;28;44596;-67
2022/01/27 00:13:12;;;;;;;5.85;3.90;;;21.40;41.00;;;;;;5001944;28;44036;-68
2022/01/27 00:15:47;;;;;;;5.35;3.72;;;21.40;41.00;;;;;;5018779;28;45755;-67
2022/01/27 00:18:19;;;;;;;5.97;4.15;;;21.40;41.10;;;;;;5017295;28;43468;-68
2022/01/27 00:20:48;;;;;;;4.88;3.88;;;21.40;41.10;;;;;;5002911;28;43502;-67
2022/01/27 00:23:16;;;;;;;5.50;4.10;;;21.40;41.00;;;;;;5018386;28;44085;-68
2022/01/27 00:25:44;;;;;;;6.10;4.10;;;21.30;41.00;;;;;;5017496;28;44197;-67
2022/01/27 00:28:12;;;;;;;4.80;4.22;;;21.30;41.00;;;;;;5020318;28;44652;-67
2022/01/27 00:30:39;;;;;;;7.32;4.47;;;21.30;41.00;;;;;;5017443;28;43948;-67
2022/01/27 00:33:08;;;;;;;6.25;4.35;;;21.30;41.00;;;;;;5034816;28;43602;-67
2022/01/27 00:35:35;;;;;;;6.03;4.60;;;21.30;41.00;;;;;;5019442;28;43925;-67
2022/01/27 00:38:03;;;;;;;6.18;4.68;;;21.30;40.90;;;;;;5022446;28;43482;-67
2022/01/27 00:40:31;;;;;;;5.78;4.35;;;21.20;40.90;;;;;;5021858;28;43525;-68
2022/01/27 00:42:58;;;;;;;7.43;4.32;;;21.20;41.00;;;;;;5020971;28;43513;-67
2022/01/27 00:45:29;;;;;;;6.40;5.10;;;21.20;40.90;;;;;;5021166;28;45805;-67
2022/01/27 00:48:00;;;;;;;5.63;4.38;;;21.20;40.90;;;;;;5004522;28;43604;-68
2022/01/27 00:50:29;;;;;;;7.65;5.03;;;21.20;40.90;;;;;;5021694;28;43483;-67
2022/01/27 00:52:58;;;;;;;6.60;4.80;;;21.20;40.90;;;;;;5016354;28;43682;-67
2022/01/27 00:55:28;;;;;;;5.90;4.82;;;21.20;40.90;;;;;;5022367;28;43817;-67
2022/01/27 01:00:32;;;;;;;7.53;5.27;;;21.20;40.90;;;;;;5018472;28;43560;-67
2022/01/27 01:03:05;;;;;;;6.25;4.68;;;21.20;40.90;;;;;;5021986;28;43591;-67
2022/01/27 01:14:20;;;;;;;5.47;4.75;;;21.10;40.90;;;;;;5005586;28;43547;-67
2022/01/27 01:16:50;;;;;;;6.85;4.78;;;21.10;40.90;;;;;;5008961;28;45768;-67
2022/01/27 01:30:20;;;;;;;5.90;4.75;;;21.00;40.90;;;;;;5002136;28;43491;-67
2022/01/27 01:32:53;;;;;;;7.03;4.80;;;21.00;41.00;;;;;;5002545;28;43510;-67
2022/01/27 01:35:28;;;;;;;6.68;4.85;;;21.00;41.00;;;;;;5003884;28;44223;-68
2022/01/27 01:37:58;;;;;;;7.13;4.80;;;20.90;40.90;;;;;;5001472;28;44195;-67
2022/01/27 01:40:26;;;;;;;6.20;4.55;;;20.90;40.90;;;;;;5007097;28;45240;-68
2022/01/27 01:42:53;;;;;;;6.85;5.18;;;20.90;40.90;;;;;;5005589;28;43458;-67
2022/01/27 01:45:21;;;;;;;6.75;4.90;;;20.90;40.80;;;;;;5004269;28;43503;-68
2022/01/27 01:47:51;;;;;;;5.70;4.72;;;20.90;40.90;;;;;;5011907;28;43951;-68
2022/01/27 01:50:19;;;;;;;6.65;5.43;;;20.90;40.90;;;;;;5005742;28;45140;-68
2022/01/27 01:52:46;;;;;;;6.38;4.82;;;20.90;40.90;;;;;;5005717;28;43508;-67
2022/01/27 01:55:15;;;;;;;6.25;5.18;;;20.90;41.00;;;;;;5002447;28;43536;-67
2022/01/27 01:57:42;;;;;;;7.28;5.38;;;20.90;40.90;;;;;;5005154;28;44516;-67
2022/01/27 02:00:11;;;;;;;6.07;5.22;;;20.90;40.90;;;;;;5024266;28;43519;-67
2022/01/27 02:02:40;;;;;;;6.05;5.05;;;20.80;40.80;;;;;;5005873;28;43465;-68
2022/01/27 02:05:08;;;;;;;8.32;6.10;;;20.80;40.80;;;;;;5004932;28;43520;-67
2022/01/27 02:17:58;;;;;;;6.80;5.18;;;20.80;40.90;;;;;;4982336;28;43583;-68
2022/01/27 02:19:21;;;;;;;7.90;5.65;;;20.70;40.80;;;;;;5021576;28;44187;-68
2022/01/27 02:21:52;;;;;;;7.72;5.45;;;20.70;40.90;;;;;;5018859;28;44238;-67
2022/01/27 02:24:21;;;;;;;6.10;5.25;;;20.70;40.90;;;;;;5017119;28;43564;-68
2022/01/27 02:26:49;;;;;;;7.72;5.30;;;20.70;40.90;;;;;;5027811;28;43576;-67
2022/01/27 02:29:19;;;;;;;6.93;5.63;;;20.70;41.00;;;;;;5019934;28;45381;-68
2022/01/27 02:31:47;;;;;;;7.57;5.35;;;20.70;40.90;;;;;;5018029;28;43868;-68
2022/01/27 02:34:15;;;;;;;6.57;5.65;;;20.70;40.90;;;;;;5005407;28;43457;-67
2022/01/27 02:36:42;;;;;;;7.70;5.78;;;20.70;40.90;;;;;;5021287;28;43576;-67
2022/01/27 02:39:11;;;;;;;6.53;5.55;;;20.60;40.80;;;;;;5019456;28;46926;-67
2022/01/27 02:41:54;;;;;;;6.85;5.60;;;20.60;40.90;;;;;;5017855;28;43484;-68
2022/01/27 02:44:46;;;;;;;7.03;5.68;;;20.60;40.90;;;;;;5016253;28;43495;-67
2022/01/27 02:47:15;;;;;;;6.75;5.28;;;20.60;40.90;;;;;;5018450;28;43540;-67
2022/01/27 02:49:43;;;;;;;7.75;5.90;;;20.60;40.90;;;;;;5036281;28;44765;-68
2022/01/27 02:52:10;;;;;;;7.15;5.80;;;20.60;40.90;;;;;;5019387;28;44357;-68
2022/01/27 02:54:38;;;;;;;5.90;5.30;;;20.50;40.90;;;;;;5020882;28;43541;-67
2022/01/27 02:57:21;;;;;;;6.90;5.90;;;20.50;40.90;;;;;;5020535;28;43639;-68
2022/01/27 02:59:48;;;;;;;7.80;5.70;;;20.50;40.90;;;;;;5020584;28;46872;-67
2022/01/27 03:02:16;;;;;;;6.80;5.03;;;20.60;41.00;;;;;;5001970;28;43548;-68
2022/01/27 03:04:44;;;;;;;7.43;5.35;;;20.60;41.00;;;;;;5016295;28;43519;-68
2022/01/27 03:07:12;;;;;;;5.70;5.10;;;20.50;41.00;;;;;;4999808;28;43469;-68
2022/01/27 03:09:40;;;;;;;7.50;5.43;;;20.50;41.00;;;;;;5017750;28;46313;-68
2022/01/27 03:12:12;;;;;;;6.57;5.03;;;20.50;41.00;;;;;;5007066;28;44435;-67
2022/01/27 03:14:41;;;;;;;6.65;5.82;;;20.50;41.00;;;;;;4999775;28;43509;-68
2022/01/27 03:17:10;;;;;;;6.13;5.38;;;20.50;41.00;;;;;;5003497;28;43596;-67
2022/01/27 03:19:38;;;;;;;6.25;5.00;;;20.50;41.10;;;;;;5003580;28;45391;-67
2022/01/27 03:22:07;;;;;;;8.55;5.78;;;20.40;41.10;;;;;;5003521;28;43577;-68
2022/01/27 03:24:35;;;;;;;7.38;5.47;;;20.40;41.00;;;;;;5001340;28;43449;-67
2022/01/27 03:27:07;;;;;;;5.97;5.35;;;20.40;41.10;;;;;;5002353;28;43493;-68
2022/01/27 03:29:35;;;;;;;6.35;5.47;;;20.40;41.10;;;;;;5016064;28;43629;-67
2022/01/27 03:32:02;;;;;;;6.22;5.40;;;20.40;41.10;;;;;;4999675;28;43452;-68
2022/01/27 03:34:30;;;;;;;8.65;5.32;;;20.40;41.10;;;;;;5005533;28;43563;-68
2022/01/27 03:36:57;;;;;;;6.78;5.60;;;20.40;41.10;;;;;;5007508;28;43561;-67
2022/01/27 03:39:26;;;;;;;7.78;5.35;;;20.40;41.10;;;;;;5005559;28;45560;-68
2022/01/27 03:41:56;;;;;;;5.97;4.82;;;20.40;41.20;;;;;;5009250;28;43537;-67
2022/01/27 03:44:24;;;;;;;8.63;5.50;;;20.40;41.20;;;;;;5011892;28;43597;-68
2022/01/27 03:46:53;;;;;;;7.15;5.70;;;20.40;41.20;;;;;;5005420;28;43486;-67
2022/01/27 03:49:22;;;;;;;7.60;5.63;;;20.30;41.20;;;;;;5002316;28;44199;-67
2022/01/27 03:51:49;;;;;;;8.27;5.47;;;20.40;41.20;;;;;;5002104;28;43537;-68
2022/01/27 03:54:17;;;;;;;6.15;5.40;;;20.30;41.20;;;;;;5019342;28;43424;-68
2022/01/27 03:56:45;;;;;;;6.68;5.03;;;20.30;41.20;;;;;;5002529;28;43521;-68
2022/01/27 03:59:12;;;;;;;6.78;5.25;;;20.30;41.20;;;;;;5002165;28;45371;-68
2022/01/27 04:01:39;;;;;;;6.75;5.60;;;20.30;41.20;;;;;;5002186;28;44755;-68
2022/01/27 04:04:07;;;;;;;7.32;5.28;;;20.30;41.20;;;;;;5005392;28;43556;-67
2022/01/27 04:06:38;;;;;;;6.22;5.05;;;20.30;41.20;;;;;;4976889;28;43509;-68
2022/01/27 04:09:08;;;;;;;5.90;5.18;;;20.30;41.30;;;;;;5008032;28;44357;-68
2022/01/27 04:11:37;;;;;;;6.47;5.20;;;20.30;41.30;;;;;;5018294;28;43560;-68
2022/01/27 04:14:05;;;;;;;6.82;4.97;;;20.30;41.30;;;;;;5000074;28;43469;-67
2022/01/27 04:16:33;;;;;;;7.05;5.13;;;20.30;41.30;;;;;;5002037;28;44218;-68
2022/01/27 04:19:01;;;;;;;7.50;5.28;;;20.30;41.30;;;;;;5020325;28;44062;-67
2022/01/27 04:21:29;;;;;;;5.63;5.05;;;20.20;41.30;;;;;;5003361;28;44278;-67
2022/01/27 04:23:57;;;;;;;6.85;5.30;;;20.20;41.30;;;;;;5004151;28;43529;-67
2022/01/27 04:26:33;;;;;;;6.75;5.20;;;20.20;41.30;;;;;;5004449;28;43503;-68
2022/01/27 04:29:01;;;;;;;6.53;5.30;;;20.20;41.40;;;;;;5008241;28;46317;-68
2022/01/27 04:31:29;;;;;;;5.95;5.07;;;20.20;41.40;;;;;;5005927;28;45006;-68
2022/01/27 04:33:57;;;;;;;6.57;5.32;;;20.20;41.40;;;;;;4998262;28;43460;-68
2022/01/27 04:36:32;;;;;;;7.00;4.95;;;20.20;41.50;;;;;;5000016;28;43581;-68
2022/01/27 04:39:10;;;;;;;5.45;4.55;;;20.20;41.50;;;;;;5002407;28;43938;-68
2022/01/27 04:41:57;;;;;;;8.25;4.90;;;20.20;41.50;;;;;;5002978;28;43529;-68
2022/01/27 04:49:28;;;;;;;6.07;4.72;;;20.20;41.60;;;;;;5019718;28;44206;-68
2022/01/27 04:51:55;;;;;;;6.50;4.70;;;20.20;41.60;;;;;;5002117;28;44824;-67
2022/01/27 04:54:29;;;;;;;7.13;5.28;;;20.20;41.70;;;;;;5000432;28;43617;-68
2022/01/27 04:57:02;;;;;;;6.00;5.00;;;20.20;41.70;;;;;;5002034;28;44156;-68
2022/01/27 04:59:35;;;;;;;5.47;4.70;;;20.20;41.70;;;;;;5000711;28;44118;-69
2022/01/27 05:02:05;;;;;;;6.53;5.15;;;20.20;41.70;;;;;;5003450;28;44840;-68
2022/01/27 05:04:39;;;;;;;6.10;5.13;;;20.10;41.70;;;;;;5004371;28;43520;-68
2022/01/27 05:07:07;;;;;;;5.88;4.53;;;20.10;41.70;;;;;;5017169;28;43539;-68
2022/01/27 05:09:35;;;;;;;6.15;5.00;;;20.10;41.80;;;;;;5007546;28;45843;-68
2022/01/27 05:12:12;;;;;;;6.13;4.70;;;20.10;41.80;;;;;;5006236;28;44862;-69
2022/01/27 05:14:40;;;;;;;6.72;4.70;;;20.10;41.80;;;;;;5003419;28;43549;-68
2022/01/27 05:17:07;;;;;;;6.75;4.60;;;20.10;41.80;;;;;;5008250;28;43476;-68
2022/01/27 05:19:35;;;;;;;7.65;4.97;;;20.10;41.90;;;;;;5009306;28;45301;-68
2022/01/27 05:22:03;;;;;;;7.38;4.88;;;20.10;41.90;;;;;;5004908;28;44884;-68
2022/01/27 05:24:30;;;;;;;5.85;4.32;;;20.10;41.90;;;;;;5000931;28;44190;-67
2022/01/27 05:26:57;;;;;;;5.03;4.28;;;20.10;41.90;;;;;;5004604;28;43498;-68
2022/01/27 05:29:25;;;;;;;6.15;4.47;;;20.10;42.00;;;;;;5002211;28;45504;-67
2022/01/27 05:31:52;;;;;;;5.82;4.40;;;20.10;42.00;;;;;;5008586;28;43477;-68
2022/01/27 05:34:20;;;;;;;7.00;4.57;;;20.10;42.00;;;;;;5004934;28;43616;-68
2022/01/27 05:36:47;;;;;;;7.70;4.50;;;20.10;42.00;;;;;;5006214;28;43521;-68
2022/01/27 05:39:15;;;;;;;6.25;4.50;;;20.10;42.10;;;;;;5006475;28;45457;-67
2022/01/27 05:41:42;;;;;;;5.03;4.18;;;20.10;42.10;;;;;;4991058;28;44708;-67
2022/01/27 05:44:10;;;;;;;5.10;4.20;;;20.10;42.10;;;;;;5007281;28;43536;-68
2022/01/27 05:46:37;;;;;;;5.57;4.32;;;20.10;42.20;;;;;;5003009;28;43468;-67
2022/01/27 05:49:05;;;;;;;4.90;3.83;;;20.10;42.20;;;;;;5005365;28;43920;-68
2022/01/27 05:51:33;;;;;;;4.47;3.90;;;20.10;42.20;;;;;;5022073;28;44125;-67
2022/01/27 05:54:01;;;;;;;5.82;4.18;;;20.10;42.90;;;;;;5007669;28;43474;-69
2022/01/27 05:56:28;;;;;;;5.82;4.53;;;20.10;42.30;;;;;;5007872;28;43532;-68
2022/01/27 05:58:56;;;;;;;4.93;4.03;;;20.10;42.30;;;;;;4987790;28;43928;-70
2022/01/27 06:01:24;;;;;;;5.78;4.20;;;20.10;42.30;;;;;;5006802;28;43544;-68
2022/01/27 06:03:52;;;;;;;5.53;4.30;;;20.10;42.40;;;;;;5005046;28;43449;-69
2022/01/27 06:06:20;;;;;;;5.68;4.50;;;20.10;42.40;;;;;;5007370;28;43515;-68
2022/01/27 06:08:47;;;;;;;6.68;4.38;;;20.10;42.40;;;;;;5004132;28;43949;-68
2022/01/27 06:11:15;;;;;;;5.60;3.50;;;20.20;42.50;;;;;;5004621;28;43627;-67
2022/01/27 06:13:43;;;;;;;5.10;3.80;;;20.20;42.50;;;;;;5002849;28;43496;-70
2022/01/27 06:16:12;;;;;;;5.13;4.03;;;20.20;42.40;;;;;;4990024;28;43687;-68
2022/01/27 06:18:41;;;;;;;5.25;4.00;;;20.20;42.40;;;;;;5005235;28;45408;-69
2022/01/27 06:21:10;;;;;;;4.75;3.72;;;20.20;42.40;;;;;;5003304;28;43838;-69
2022/01/27 06:23:37;;;;;;;6.15;4.22;;;20.20;42.40;;;;;;5007608;28;43545;-69
2022/01/27 06:26:05;;;;;;;4.55;3.67;;;20.20;42.40;;;;;;5008420;28;43661;-69
2022/01/27 06:28:32;;;;;;;5.07;3.72;;;20.30;42.50;;;;;;5002769;28;44163;-69
2022/01/27 06:31:00;;;;;;;5.10;3.83;;;20.20;42.40;;;;;;5002875;28;43467;-68
2022/01/27 06:33:27;;;;;;;5.53;4.00;;;20.20;42.50;;;;;;5002434;28;43612;-69
2022/01/27 06:35:55;;;;;;;4.38;3.97;;;20.30;42.50;;;;;;5001563;28;43545;-67
2022/01/27 06:38:22;;;;;;;5.00;4.07;;;20.30;42.50;;;;;;5005894;28;43802;-67
2022/01/27 06:40:50;;;;;;;5.78;3.95;;;20.30;42.50;;;;;;5003117;28;44348;-68
2022/01/27 06:43:17;;;;;;;5.60;4.10;;;20.30;42.50;;;;;;5005084;28;43474;-67
2022/01/27 06:45:45;;;;;;;5.22;3.90;;;20.30;42.50;;;;;;5000126;28;43582;-68
2022/01/27 06:48:12;;;;;;;5.10;3.70;;;20.40;42.50;;;;;;5010305;28;45654;-68
2022/01/27 06:50:40;;;;;;;4.70;3.50;;;20.40;42.50;;;;;;5004086;28;43472;-68
2022/01/27 06:53:09;;;;;;;4.57;3.78;;;20.40;42.50;;;;;;5022312;28;43454;-68
2022/01/27 06:55:38;;;;;;;4.32;3.30;;;20.40;42.50;;;;;;5001455;28;43613;-68
2022/01/27 06:58:05;;;;;;;4.82;3.80;;;20.40;42.50;;;;;;5005952;28;44669;-67
2022/01/27 07:00:33;;;;;;;4.45;3.70;;;20.40;42.60;;;;;;5001732;28;44762;-67
2022/01/27 07:03:00;;;;;;;4.78;3.45;;;20.40;42.50;;;;;;5006084;28;43500;-67
2022/01/27 07:05:31;;;;;;;4.22;3.70;;;20.50;42.70;;;;;;5002271;28;43660;-68
2022/01/27 07:07:59;;;;;;;5.57;3.78;;;20.40;42.70;;;;;;5006083;28;43947;-69
2022/01/27 07:10:27;;;;;;;4.47;3.40;;;20.50;42.70;;;;;;5003839;28;44411;-68
2022/01/27 07:12:54;;;;;;;5.00;3.70;;;20.50;42.70;;;;;;4989071;28;43469;-67
2022/01/27 07:15:23;;;;;;;5.00;3.83;;;20.50;42.70;;;;;;5007369;28;43534;-68
2022/01/27 07:17:52;;;;;;;5.60;3.80;;;20.50;42.70;;;;;;5001519;28;43636;-69
2022/01/27 07:20:19;;;;;;;5.05;3.70;;;20.50;42.70;;;;;;5004093;28;43583;-68
2022/01/27 07:22:46;;;;;;;3.97;3.15;;;20.50;42.60;;;;;;5003610;28;43511;-69
2022/01/27 07:25:14;;;;;;;4.80;3.55;;;20.50;42.70;;;;;;5004896;28;44046;-69
2022/01/27 07:27:42;;;;;;;4.53;3.38;;;20.50;42.70;;;;;;5004855;28;44137;-68
2022/01/27 07:30:09;;;;;;;5.20;3.80;;;20.50;42.70;;;;;;5022166;28;43512;-68
2022/01/27 07:32:38;;;;;;;5.93;3.40;;;20.50;42.70;;;;;;5019499;28;43489;-67
2022/01/27 07:35:07;;;;;;;5.93;3.65;;;20.60;42.70;;;;;;4999236;28;43600;-68
2022/01/27 07:37:34;;;;;;;5.88;3.50;;;20.60;42.70;;;;;;5022097;28;43953;-68
2022/01/27 07:40:03;;;;;;;4.53;3.30;;;20.60;42.70;;;;;;5003916;28;43476;-68
2022/01/27 07:42:30;;;;;;;5.50;3.20;;;20.60;42.70;;;;;;5003132;28;43557;-68
2022/01/27 07:44:57;;;;;;;4.80;3.40;;;20.60;42.80;;;;;;5022272;28;43550;-68
2022/01/27 07:47:25;;;;;;;5.88;3.40;;;20.60;42.70;;;;;;5016642;28;43565;-68
2022/01/27 07:49:52;;;;;;;5.93;3.47;;;20.60;42.70;;;;;;5004621;28;44396;-68
2022/01/27 07:52:20;;;;;;;4.97;3.50;;;20.60;42.70;;;;;;5006488;28;43533;-68
2022/01/27 07:54:49;;;;;;;4.90;3.35;;;20.60;42.70;;;;;;5004431;28;43614;-68
2022/01/27 07:57:17;;;;;;;5.07;3.25;;;20.60;42.70;;;;;;5003320;28;43913;-68
2022/01/27 07:59:44;;;;;;;6.10;3.35;;;20.70;42.80;;;;;;5002639;28;43790;-68
2022/01/27 08:02:12;;;;;;;4.28;3.20;;;20.70;42.70;;;;;;5004075;28;43521;-68
2022/01/27 08:04:40;;;;;;;5.75;3.72;;;20.70;42.80;;;;;;5007973;28;43519;-68
2022/01/27 08:07:08;;;;;;;4.72;3.15;;;20.70;42.70;;;;;;5001678;28;43925;-67
2022/01/27 08:09:35;;;;;;;5.97;3.50;;;20.70;42.80;;;;;;5002907;28;43506;-68
2022/01/27 08:12:03;;;;;;;6.03;3.17;;;20.70;42.70;;;;;;5006165;28;44187;-68
2022/01/27 08:14:31;;;;;;;5.40;3.17;;;20.70;42.80;;;;;;5006421;28;43631;-69
2022/01/27 08:16:58;;;;;;;5.60;3.30;;;20.70;42.70;;;;;;4987699;28;45663;-68
2022/01/27 08:19:26;;;;;;;6.88;3.45;;;20.80;42.80;;;;;;5005340;28;43653;-66
2022/01/27 08:21:53;;;;;;;5.07;3.40;;;20.80;42.80;;;;;;4997012;28;43516;-67
2022/01/27 08:24:20;;;;;;;6.32;3.70;;;20.80;42.90;;;;;;4994756;28;43523;-68
2022/01/27 08:26:50;;;;;;;6.45;2.92;;;20.80;42.80;;;;;;5000051;28;43992;-68
2022/01/27 08:29:24;;;;;;;5.85;2.92;;;20.80;42.90;;;;;;4999212;28;43737;-67
2022/01/27 08:32:17;;;;;;;7.10;3.50;;;20.80;42.90;;;;;;5009183;28;43540;-69
2022/01/27 08:34:44;;;;;;;6.05;3.33;;;20.80;42.90;;;;;;4981401;28;43401;-67
2022/01/27 08:37:17;;;;;;;7.07;3.42;;;20.80;42.90;;;;;;4997096;28;45467;-67
2022/01/27 08:39:48;;;;;;;6.78;3.20;;;20.80;42.90;;;;;;5000626;28;43710;-67
2022/01/27 08:42:16;;;;;;;5.80;3.13;;;20.80;42.90;;;;;;4999543;28;43756;-67
2022/01/27 08:44:44;;;;;;;4.60;2.72;;;20.80;42.90;;;;;;5008112;28;43555;-68
2022/01/27 08:47:12;;;;;;;6.90;3.22;;;20.80;42.90;;;;;;5005983;28;46023;-67
2022/01/27 08:49:42;;;;;;;5.78;3.22;;;20.80;42.90;;;;;;5000921;28;44980;-67
2022/01/27 08:52:10;;;;;;;5.63;3.03;;;20.90;42.90;;;;;;5004129;28;43536;-68
2022/01/27 08:54:39;;;;;;;5.53;3.17;;;20.90;42.90;;;;;;5005368;28;43620;-67
2022/01/27 08:57:06;;;;;;;6.65;3.28;;;20.90;43.00;;;;;;5004177;28;43941;-68
2022/01/27 08:59:34;;;;;;;6.55;3.25;;;20.90;43.00;;;;;;5008544;28;44404;-67
2022/01/27 09:02:01;;;;;;;6.22;3.08;;;20.90;43.00;;;;;;5006679;28;43504;-68
2022/01/27 09:04:29;;;;;;;6.28;3.22;;;20.90;42.90;;;;;;5005343;28;43609;-68
2022/01/27 09:06:57;;;;;;;5.13;3.03;;;20.90;43.00;;;;;;5001077;28;44316;-68
2022/01/27 09:09:24;;;;;;;4.90;3.28;;;20.90;43.00;;;;;;4998624;28;44417;-67
2022/01/27 09:11:53;;;;;;;5.50;3.30;;;21.00;43.00;;;;;;4994386;28;43537;-67
2022/01/27 09:14:20;;;;;;;5.88;3.10;;;21.00;43.00;;;;;;5014281;28;44102;-68
2022/01/27 09:16:48;;;;;;;7.82;3.20;;;21.00;43.00;;;;;;4991672;28;45148;-67
2022/01/27 09:19:17;;;;;;;3.85;2.70;;;21.00;43.00;;;;;;5009569;28;43543;-68
2022/01/27 09:21:46;;;;;;;4.47;2.97;;;21.00;43.00;;;;;;5011889;28;43538;-67
2022/01/27 09:24:17;;;;;;;5.47;2.88;;;21.00;43.00;;;;;;5000050;28;43655;-67
2022/01/27 09:29:19;;;;;;;5.90;3.25;;;21.00;43.00;;;;;;4998407;28;44680;-68
2022/01/27 09:31:48;;;;;;;5.83;3.00;;;21.00;43.00;;;;;;5004029;28;44013;-68
2022/01/27 09:34:17;;;;;;;6.43;3.15;;;21.10;43.00;;;;;;5002091;28;43893;-67
2022/01/27 09:36:46;;;;;;;5.65;2.85;;;21.00;43.00;;;;;;5005088;28;45711;-68
2022/01/27 09:39:15;;;;;;;7.65;3.42;;;21.10;43.10;;;;;;5001509;28;43620;-67
2022/01/27 09:41:43;;;;;;;6.90;3.40;;;21.10;43.00;;;;;;5006454;28;43550;-67
2022/01/27 09:44:13;;;;;;;4.78;2.75;;;21.10;43.10;;;;;;5006933;28;43625;-67
2022/01/27 09:46:44;;;;;;;6.35;3.13;;;21.10;43.10;;;;;;5005151;28;44192;-67
2022/01/27 09:49:16;;;;;;;6.55;3.00;;;21.10;43.10;;;;;;5003968;28;43521;-68
2022/01/27 09:51:46;;;;;;;5.72;3.28;;;21.10;43.00;;;;;;5006336;28;43545;-67
2022/01/27 09:54:15;;;;;;;5.07;2.65;;;21.10;43.10;;;;;;5001268;28;43618;-68
2022/01/27 09:56:43;;;;;;;7.65;3.35;;;21.10;43.10;;;;;;5006067;28;44867;-67
2022/01/27 09:59:16;;;;;;;5.25;3.20;;;21.20;43.20;;;;;;4998433;28;43990;-68
2022/01/27 10:02:16;;;;;;;5.13;2.65;;;21.20;43.10;;;;;;5009131;28;43555;-67
2022/01/27 10:04:57;;;;;;;5.80;3.10;;;21.30;43.20;;;;;;5003178;28;43491;-67
2022/01/27 10:07:32;;;;;;;5.13;2.60;;;21.30;43.10;;;;;;5004043;28;45657;-68
2022/01/27 10:10:14;;;;;;;5.43;2.80;;;21.30;43.20;;;;;;5021316;28;44769;-67
2022/01/27 10:12:47;;;;;;;5.35;2.72;;;21.30;43.20;;;;;;5006144;28;43468;-67
2022/01/27 10:15:20;;;;;;;5.50;2.80;;;21.30;43.20;;;;;;5007453;28;43488;-68
2022/01/27 10:18:07;;;;;;;6.22;3.00;;;21.40;43.20;;;;;;5003218;28;45783;-67
2022/01/27 10:20:59;;;;;;;5.68;3.20;;;21.40;43.20;;;;;;5022196;28;44510;-68
2022/01/27 10:23:32;;;;;;;7.18;3.05;;;21.40;43.20;;;;;;4994741;28;43563;-67
2022/01/27 10:26:30;;;;;;;5.30;3.00;;;21.40;43.20;;;;;;5004795;28;43832;-68
2022/01/27 10:29:13;;;;;;;6.25;3.20;;;21.40;43.20;;;;;;5021428;28;45604;-67
2022/01/27 10:31:44;;;;;;;6.70;2.90;;;21.50;43.30;;;;;;5005466;28;44713;-66
2022/01/27 10:34:15;;;;;;;7.90;3.35;;;21.40;43.20;;;;;;5009876;28;43504;-66
2022/01/27 10:36:46;;;;;;;5.60;2.90;;;21.50;43.30;;;;;;5007374;28;43546;-66
2022/01/27 10:39:20;;;;;;;6.18;2.80;;;21.50;43.20;;;;;;5002600;28;43994;-67
2022/01/27 10:42:06;;;;;;;6.40;3.08;;;21.50;43.20;;;;;;5006728;28;45851;-67
2022/01/27 10:44:38;;;;;;;6.90;3.00;;;21.50;43.20;;;;;;4986772;28;43541;-67
2022/01/27 10:47:15;;;;;;;6.25;2.63;;;21.60;43.20;;;;;;5003985;28;43514;-67
2022/01/27 10:49:54;;;;;;;6.57;2.78;;;21.60;43.20;;;;;;5004598;28;43993;-67
2022/01/27 10:52:47;;;;;;;6.10;2.78;;;21.50;43.10;;;;;;5003735;28;43513;-66
2022/01/27 10:55:20;;;;;;;6.28;3.10;;;21.60;43.30;;;;;;5003360;28;43516;-67
2022/01/27 10:57:50;;;;;;;6.57;2.97;;;21.60;43.20;;;;;;5005343;28;43483;-67
2022/01/27 11:00:21;;;;;;;6.15;2.85;;;21.60;43.20;;;;;;5005247;28;45582;-66
2022/01/27 11:03:03;;;;;;;5.07;2.50;;;21.60;43.20;;;;;;5020982;28;43526;-67
2022/01/27 11:05:35;;;;;;;6.57;2.85;;;21.70;43.20;;;;;;5019777;28;43445;-67
2022/01/27 11:08:03;;;;;;;5.70;2.95;;;21.70;43.20;;;;;;5001596;28;43474;-67
2022/01/27 11:10:31;;;;;;;6.05;2.80;;;21.70;43.20;;;;;;5004662;28;44210;-67
2022/01/27 11:13:00;;;;;;;6.30;2.80;;;21.70;43.20;;;;;;5001882;28;44376;-66
2022/01/27 11:15:28;;;;;;;6.07;3.08;;;21.70;43.20;;;;;;5004886;28;43476;-67
2022/01/27 11:17:56;;;;;;;4.63;2.63;;;21.70;43.90;;;;;;4987682;28;43628;-66
2022/01/27 11:21:00;;;;;;;6.95;3.10;;;21.70;43.20;;;;;;5004776;28;44001;-67
2022/01/27 11:26:10;;;;;;;5.28;2.63;;;21.80;43.20;;;;;;4989899;28;44112;-66
2022/01/27 11:28:44;;;;;;;7.25;2.80;;;21.80;43.20;;;;;;5006503;28;43559;-66
2022/01/27 11:31:34;;;;;;;8.68;3.20;;;21.80;43.20;;;;;;5010828;28;43840;-67
2022/01/27 11:34:05;;;;;;;5.85;2.88;;;21.80;43.20;;;;;;4993211;28;43700;-67
2022/01/27 11:36:34;;;;;;;7.10;2.88;;;21.80;43.10;;;;;;5019781;28;43440;-67
2022/01/27 11:39:01;;;;;;;8.82;3.65;;;21.80;43.10;;;;;;5003725;28;43569;-67
2022/01/27 11:41:44;;;;;;;7.70;3.22;;;21.90;43.20;;;;;;4999551;28;45682;-67
2022/01/27 11:44:28;;;;;;;8.68;3.13;;;21.90;43.20;;;;;;5006630;28;43718;-69
2022/01/27 11:47:17;;;;;;;6.90;3.25;;;21.90;43.20;;;;;;5001470;28;43604;-68
2022/01/27 11:52:31;;;;;;;7.30;3.33;;;21.90;43.20;;;;;;5017936;28;45467;-67
2022/01/27 11:55:25;;;;;;;8.50;3.27;;;21.90;43.30;;;;;;5002766;28;44377;-69
2022/01/27 11:57:54;;;;;;;8.10;3.17;;;21.90;43.20;;;;;;4984793;28;43477;-68
2022/01/27 12:00:26;;;;;;;5.90;2.65;;;21.90;43.20;;;;;;5004522;28;43600;-68
2022/01/27 12:02:56;;;;;;;7.75;3.58;;;22.00;43.30;;;;;;5004811;28;45285;-67
2022/01/27 12:05:26;;;;;;;6.22;3.00;;;22.00;43.20;;;;;;5001499;28;45041;-68
2022/01/27 12:08:12;;;;;;;8.00;3.53;;;22.00;43.20;;;;;;5005696;28;44069;-68
2022/01/27 12:10:50;;;;;;;7.72;3.40;;;22.00;43.20;;;;;;5020152;28;43615;-68
2022/01/27 12:13:49;;;;;;;7.53;3.40;;;22.00;43.20;;;;;;5001828;28;44022;-68
2022/01/27 12:19:03;;;;;;;6.93;3.20;;;22.00;43.30;;;;;;5007486;28;43505;-69
2022/01/27 12:21:31;;;;;;;8.48;3.33;;;22.10;43.30;;;;;;5008530;28;43497;-67
2022/01/27 12:24:12;;;;;;;8.68;3.67;;;22.10;43.90;;;;;;5025765;28;43983;-68
2022/01/27 12:27:06;;;;;;;7.35;3.15;;;22.10;43.20;;;;;;5012351;28;44061;-67
2022/01/27 12:29:39;;;;;;;7.53;3.35;;;22.20;43.20;;;;;;4991907;28;43573;-67
2022/01/27 12:32:17;;;;;;;6.88;3.05;;;22.20;43.20;;;;;;4991717;28;43553;-67
2022/01/27 12:34:51;;;;;;;7.22;3.20;;;22.20;43.10;;;;;;5010312;28;44008;-67
2022/01/27 12:37:22;;;;;;;7.85;2.97;;;22.20;43.20;;;;;;5007588;28;44313;-67
2022/01/27 12:39:57;;;;;;;8.45;3.45;;;22.20;43.20;;;;;;5004978;28;43479;-67
2022/01/27 12:42:36;;;;;;;8.77;3.28;;;22.30;43.80;;;;;;5002365;28;43479;-67
2022/01/27 12:45:14;;;;;;;7.00;3.10;;;22.30;43.10;;;;;;5008734;28;43946;-67
2022/01/27 12:47:47;;;;;;;7.13;3.28;;;22.30;43.10;;;;;;5011417;28;43545;-68
2022/01/27 12:50:19;;;;;;;7.78;3.20;;;22.20;43.10;;;;;;5024600;28;44110;-68
2022/01/27 12:52:51;;;;;;;8.68;3.17;;;22.30;43.10;;;;;;5009533;28;43580;-68
2022/01/27 12:55:36;;;;;;;8.15;3.60;;;22.30;43.00;;;;;;5009546;28;44015;-68
2022/01/27 12:58:06;;;;;;;7.47;3.42;;;22.30;43.10;;;;;;5010556;28;45030;-68
2022/01/27 13:00:52;;;;;;;7.10;2.92;;;22.30;43.00;;;;;;5006595;28;43538;-68
2022/01/27 13:03:21;;;;;;;8.30;3.17;;;22.30;43.00;;;;;;4992224;28;44126;-68
2022/01/27 13:05:53;;;;;;;7.53;3.30;;;22.30;43.00;;;;;;5007702;28;45610;-68
2022/01/27 13:08:30;;;;;;;8.52;3.90;;;22.40;43.00;;;;;;5008495;28;43500;-67
2022/01/27 13:11:03;;;;;;;9.25;3.75;;;22.40;42.90;;;;;;5025257;28;43656;-68
2022/01/27 13:13:36;;;;;;;8.30;3.15;;;22.40;43.00;;;;;;5022841;28;43634;-68
2022/01/27 13:16:06;;;;;;;9.07;3.53;;;22.40;43.00;;;;;;5010813;28;45760;-67
2022/01/27 13:18:44;;;;;;;8.93;3.38;;;22.40;42.90;;;;;;5010112;28;45054;-67
2022/01/27 13:21:21;;;;;;;9.75;3.67;;;22.40;42.90;;;;;;5023342;28;43496;-67
2022/01/27 13:24:04;;;;;;;7.50;3.22;;;22.40;43.50;;;;;;5023036;28;43589;-67
2022/01/27 13:26:32;;;;;;;6.88;3.28;;;22.40;42.90;;;;;;4990890;28;45264;-68
2022/01/27 13:29:00;;;;;;;7.70;3.15;;;22.40;42.90;;;;;;5007566;28;43516;-68
2022/01/27 13:31:28;;;;;;;7.03;3.25;;;22.40;42.90;;;;;;5003169;28;44506;-67
2022/01/27 13:34:02;;;;;;;7.10;3.35;;;22.40;42.90;;;;;;5007082;28;43511;-67
2022/01/27 13:36:34;;;;;;;9.15;3.45;;;22.40;42.80;;;;;;5003797;28;45362;-68
2022/01/27 13:41:41;;;;;;;7.63;3.45;;;22.50;42.90;;;;;;4986351;28;43448;-68
2022/01/27 13:44:14;;;;;;;8.10;3.13;;;22.50;42.80;;;;;;5009534;28;43502;-67
2022/01/27 13:46:44;;;;;;;7.85;3.30;;;22.50;42.70;;;;;;5020853;28;43883;-67
2022/01/27 13:49:13;;;;;;;7.20;3.17;;;22.50;42.70;;;;;;5005716;28;43587;-68
2022/01/27 13:51:52;;;;;;;8.70;3.22;;;22.50;42.80;;;;;;5005625;28;43502;-68
2022/01/27 13:54:37;;;;;;;10.02;3.45;;;22.50;42.70;;;;;;5020668;28;43595;-68
2022/01/27 13:57:13;;;;;;;8.55;3.13;;;22.50;42.70;;;;;;5005924;28;44180;-67
2022/01/27 13:59:58;;;;;;;8.23;3.33;;;22.60;42.80;;;;;;5006363;28;43619;-67
2022/01/27 14:02:33;;;;;;;7.25;3.30;;;22.50;42.70;;;;;;5008644;28;43587;-68
2022/01/27 14:05:22;;;;;;;6.53;3.10;;;22.60;42.80;;;;;;5003224;28;43549;-68